createdAt,value
2018-09-13T00:00:32.353Z,96.40
2018-09-13T00:03:01.492Z,96.80
2018-09-13T00:05:30.649Z,96.60
2018-09-13T00:08:05.635Z,96.80
2018-09-13T00:10:34.812Z,97.30
2018-09-13T00:13:03.977Z,97.60
2018-09-13T00:15:33.162Z,97.20
2018-09-13T00:18:02.309Z,96.10
2018-09-13T00:20:31.469Z,96.30
2018-09-13T00:23:00.683Z,96.80
2018-09-13T00:25:29.847Z,95.90
2018-09-13T00:27:59.061Z,97.10
2018-09-13T00:30:28.242Z,95.90
2018-09-13T00:32:57.541Z,95.60
2018-09-13T00:35:26.717Z,95.70
2018-09-13T00:37:55.937Z,95.40
2018-09-13T00:40:25.117Z,95.70
2018-09-13T00:42:54.276Z,96.60
2018-09-13T00:45:23.482Z,97.10
2018-09-13T00:47:52.647Z,98.10
2018-09-13T00:50:21.820Z,98.60
2018-09-13T00:52:51.363Z,98.30
2018-09-13T00:55:20.542Z,98.00
2018-09-13T00:57:49.678Z,97.60
2018-09-13T01:00:18.981Z,97.90
2018-09-13T01:05:48.633Z,98.90
2018-09-13T01:08:17.941Z,99.60
2018-09-13T01:10:47.114Z,99.20
2018-09-13T01:13:16.256Z,97.80
2018-09-13T01:15:45.411Z,98.30
2018-09-13T01:18:14.602Z,98.70
2018-09-13T01:20:43.782Z,99.30
2018-09-13T01:23:12.922Z,98.90
2018-09-13T01:25:42.101Z,98.80
2018-09-13T01:28:11.253Z,98.90
2018-09-13T01:31:03.588Z,99.40
2018-09-13T01:33:32.745Z,98.40
2018-09-13T01:36:01.929Z,97.70
2018-09-13T01:38:31.137Z,97.60
2018-09-13T01:41:00.320Z,98.70
2018-09-13T01:43:29.512Z,98.30
2018-09-13T01:45:58.710Z,98.90
2018-09-13T01:48:27.859Z,98.80
2018-09-13T01:51:04.098Z,99.60
2018-09-13T01:53:33.533Z,99.90
2018-09-13T01:56:02.685Z,99.90
2018-09-13T01:58:31.871Z,99.20
2018-09-13T02:01:01.041Z,99.90
2018-09-13T02:03:30.209Z,99.90
2018-09-13T02:05:59.393Z,99.90
2018-09-13T02:08:28.553Z,99.90
2018-09-13T02:10:57.731Z,99.90
2018-09-13T02:16:27.358Z,99.90
2018-09-13T02:18:56.505Z,99.90
2018-09-13T02:21:25.675Z,99.90
2018-09-13T02:23:54.861Z,99.90
2018-09-13T02:26:24.009Z,99.90
2018-09-13T02:28:53.205Z,99.90
2018-09-13T02:31:22.553Z,99.90
2018-09-13T02:33:51.754Z,99.90
2018-09-13T02:36:20.935Z,99.90
2018-09-13T02:38:50.118Z,99.90
2018-09-13T02:41:19.330Z,99.90
2018-09-13T02:43:48.469Z,99.90
2018-09-13T02:46:17.631Z,99.90
2018-09-13T02:48:46.791Z,99.90
2018-09-13T02:51:15.949Z,99.90
2018-09-13T02:53:45.331Z,99.90
2018-09-13T02:56:14.486Z,99.90
2018-09-13T02:58:43.650Z,99.90
2018-09-13T03:01:12.833Z,99.90
2018-09-13T03:03:42.006Z,99.90
2018-09-13T03:06:11.237Z,99.90
2018-09-13T03:08:40.385Z,99.90
2018-09-13T03:11:09.546Z,99.90
2018-09-13T03:13:38.807Z,99.90
2018-09-13T03:16:08.326Z,99.90
2018-09-13T03:18:37.520Z,99.90
2018-09-13T03:21:06.729Z,99.90
2018-09-13T03:23:36.038Z,99.90
2018-09-13T03:26:05.185Z,99.90
2018-09-13T03:28:34.432Z,99.90
2018-09-13T03:31:03.578Z,99.90
2018-09-13T03:33:32.753Z,99.90
2018-09-13T03:36:01.934Z,99.90
2018-09-13T03:38:31.090Z,99.90
2018-09-13T03:41:00.241Z,99.90
2018-09-13T03:43:29.433Z,99.90
2018-09-13T03:45:58.615Z,99.90
2018-09-13T03:48:27.773Z,99.90
2018-09-13T03:50:56.966Z,99.90
2018-09-13T03:53:26.179Z,99.90
2018-09-13T03:55:55.835Z,99.90
2018-09-13T03:58:25.009Z,99.90
2018-09-13T04:00:54.157Z,99.90
2018-09-13T04:03:23.391Z,99.90
2018-09-13T04:08:52.814Z,99.90
2018-09-13T04:11:21.978Z,99.90
2018-09-13T04:13:51.130Z,99.90
2018-09-13T04:16:20.443Z,99.90
2018-09-13T04:18:50.080Z,99.90
2018-09-13T04:21:19.224Z,99.90
2018-09-13T04:23:48.427Z,99.90
2018-09-13T04:26:17.616Z,99.90
2018-09-13T04:28:46.810Z,99.80
2018-09-13T04:31:15.993Z,99.90
2018-09-13T04:36:45.204Z,99.90
2018-09-13T04:39:14.421Z,99.80
2018-09-13T04:41:43.578Z,99.90
2018-09-13T04:44:12.784Z,99.90
2018-09-13T04:46:41.960Z,99.80
2018-09-13T04:49:11.235Z,99.80
2018-09-13T04:51:40.465Z,99.70
2018-09-13T04:54:09.624Z,99.80
2018-09-13T04:56:39.050Z,99.80
2018-09-13T04:59:08.758Z,99.80
2018-09-13T05:01:39.770Z,99.80
2018-09-13T05:04:09.305Z,99.80
2018-09-13T05:06:38.560Z,99.70
2018-09-13T05:09:12.197Z,99.80
2018-09-13T05:11:41.452Z,99.80
2018-09-13T05:14:10.596Z,99.80
2018-09-13T05:16:39.871Z,99.80
2018-09-13T05:19:09.032Z,99.70
2018-09-13T05:21:38.174Z,99.80
2018-09-13T05:24:07.372Z,99.40
2018-09-13T05:26:36.546Z,99.70
2018-09-13T05:29:05.839Z,99.60
2018-09-13T05:32:02.116Z,99.70
2018-09-13T05:34:31.269Z,99.60
2018-09-13T05:37:00.454Z,99.50
2018-09-13T06:10:03.147Z,99.40
2018-09-13T06:22:20.446Z,99.60
2018-09-13T06:31:04.849Z,99.40
2018-09-13T06:34:03.576Z,99.20
2018-09-13T06:49:01.880Z,98.90
2018-09-13T07:04:02.219Z,98.70
2018-09-13T07:31:08.972Z,98.60
2018-09-13T07:37:04.470Z,98.50
2018-09-13T07:43:02.182Z,98.40
2018-09-13T08:14:14.431Z,98.30
2018-09-13T08:32:05.729Z,97.70
2018-09-13T08:41:01.872Z,97.80
2018-09-13T08:47:05.993Z,97.60
2018-09-13T08:50:02.051Z,97.50
2018-09-13T08:52:51.885Z,97.20
2018-09-13T09:07:43.135Z,96.90
2018-09-13T09:10:12.297Z,96.90
2018-09-13T09:15:42.257Z,96.80
2018-09-13T09:18:11.416Z,96.90
2018-09-13T09:21:03.625Z,96.50
2018-09-13T09:36:02.548Z,96.10
2018-09-13T09:45:02.142Z,95.80
2018-09-13T09:59:31.494Z,95.40
2018-09-13T10:02:12.640Z,95.30
2018-09-13T10:05:02.834Z,95.30
2018-09-13T10:19:21.457Z,95.10
2018-09-13T10:27:18.837Z,95.00
2018-09-13T11:27:50.542Z,93.30
2018-09-13T11:49:04.726Z,93.20
2018-09-13T11:52:02.604Z,92.90
2018-09-13T11:58:02.351Z,92.60
2018-09-13T12:10:03.250Z,92.60
2018-09-13T12:16:02.050Z,92.80
2018-09-13T12:27:39.483Z,92.60
2018-09-13T12:30:22.704Z,92.70
2018-09-13T12:32:54.542Z,92.70
2018-09-13T12:35:28.752Z,92.60
2018-09-13T12:44:11.057Z,92.60
2018-09-13T12:50:05.788Z,92.70
2018-09-13T12:52:35.618Z,92.80
2018-09-13T12:55:04.806Z,92.50
2018-09-13T13:04:04.107Z,92.90
2018-09-13T14:20:04.712Z,90.90
2018-09-13T14:23:02.977Z,90.70
2018-09-13T14:32:03.040Z,90.80
2018-09-13T14:38:02.268Z,90.80
2018-09-13T14:59:02.538Z,90.40
2018-09-13T15:11:02.563Z,90.80
2018-09-13T15:48:02.269Z,90.30
2018-09-13T16:09:02.857Z,90.60
2018-09-13T16:18:02.576Z,90.70
2018-09-13T16:33:03.519Z,91.20
2018-09-13T16:53:14.414Z,93.60
2018-09-13T16:56:03.892Z,93.30
2018-09-13T17:02:02.827Z,93.90
2018-09-13T17:17:02.581Z,93.70
2018-09-13T17:35:02.940Z,93.30
2018-09-13T17:42:08.951Z,92.80
2018-09-13T17:45:03.101Z,92.90
2018-09-13T19:05:19.611Z,95.40
2018-09-13T19:07:48.860Z,95.20
2018-09-13T19:10:18.697Z,95.50
2018-09-13T19:12:47.970Z,94.60
2018-09-13T19:15:17.191Z,93.60
2018-09-13T19:17:46.433Z,93.50
2018-09-13T19:20:15.666Z,95.30
2018-09-13T19:22:44.946Z,94.90
2018-09-13T19:25:15.025Z,94.80
2018-09-13T19:27:44.237Z,93.90
2018-09-13T19:30:14.176Z,95.10
2018-09-13T19:32:43.451Z,95.90
2018-09-13T19:35:12.713Z,94.40
2018-09-13T19:37:42.369Z,95.10
2018-09-13T19:40:11.829Z,95.70
2018-09-13T19:43:03.713Z,96.10
2018-09-13T19:45:32.963Z,94.60
2018-09-13T19:48:03.179Z,95.90
2018-09-13T19:50:33.381Z,96.40
2018-09-13T19:53:06.682Z,95.80
2018-09-13T19:55:35.911Z,95.00
2018-09-13T19:58:05.332Z,94.60
2018-09-13T20:00:34.955Z,96.20
2018-09-13T20:03:04.211Z,94.70
2018-09-13T20:05:34.067Z,95.60
2018-09-13T20:08:03.425Z,96.80
2018-09-13T20:10:33.805Z,97.20
2018-09-13T20:13:03.078Z,96.90
2018-09-13T20:15:32.366Z,97.00
2018-09-13T20:18:05.218Z,97.10
2018-09-13T20:21:03.410Z,97.00
2018-09-13T20:23:32.732Z,97.00
2018-09-13T20:26:03.013Z,96.50
2018-09-13T20:31:32.638Z,97.10
2018-09-13T20:34:01.875Z,97.10
2018-09-13T20:36:31.126Z,96.80
2018-09-13T20:39:00.368Z,96.80
2018-09-13T20:41:29.540Z,97.00
2018-09-13T20:43:58.759Z,96.70
2018-09-13T20:46:27.961Z,97.30
2018-09-13T20:49:05.055Z,96.90
2018-09-13T20:51:34.289Z,96.70
2018-09-13T20:54:03.448Z,96.70
2018-09-13T20:56:32.607Z,96.80
2018-09-13T20:59:01.799Z,96.60
2018-09-13T21:01:30.982Z,96.80
2018-09-13T21:04:00.182Z,96.90
2018-09-13T21:06:29.542Z,97.00
2018-09-13T21:09:07.314Z,96.70
2018-09-13T21:11:36.665Z,96.50
2018-09-13T21:14:05.837Z,96.60
2018-09-13T21:16:35.019Z,96.60
2018-09-13T21:19:04.250Z,96.60
2018-09-13T21:21:33.400Z,96.60
2018-09-13T21:24:02.624Z,96.60
2018-09-13T21:26:32.195Z,96.40
2018-09-13T21:29:01.370Z,96.70
2018-09-13T21:31:30.533Z,96.50
2018-09-13T21:33:59.908Z,96.70
2018-09-13T21:36:29.066Z,96.70
2018-09-13T21:38:58.235Z,96.70
2018-09-13T21:41:27.765Z,95.70
2018-09-13T21:43:57.063Z,96.30
2018-09-13T21:46:26.268Z,96.90
2018-09-13T21:48:55.477Z,96.80
2018-09-13T21:51:24.649Z,95.60
2018-09-13T21:53:53.850Z,97.20
2018-09-13T21:56:23.001Z,95.70
2018-09-13T21:59:04.214Z,97.30
2018-09-13T22:01:33.384Z,96.90
2018-09-13T22:04:02.590Z,97.60
2018-09-13T22:06:31.816Z,97.70
2018-09-13T22:09:09.835Z,96.70
2018-09-13T22:11:40.689Z,97.70
2018-09-13T22:14:09.831Z,97.90
2018-09-13T22:16:39.214Z,97.90
2018-09-13T22:19:08.416Z,97.80
2018-09-13T22:21:37.675Z,97.90
2018-09-13T22:24:06.781Z,97.60
2018-09-13T22:26:36.437Z,97.40
2018-09-13T22:29:06.094Z,97.70
2018-09-13T22:31:35.821Z,97.50
2018-09-13T22:34:06.803Z,97.50
2018-09-13T22:36:36.780Z,97.60
2018-09-13T22:39:10.356Z,98.30
2018-09-13T22:42:04.415Z,98.40
2018-09-13T22:44:40.402Z,98.20
2018-09-13T22:47:10.438Z,98.00
2018-09-13T22:49:39.937Z,98.40
2018-09-13T22:52:09.644Z,97.40
2018-09-13T22:54:38.962Z,99.00
2018-09-13T23:00:08.069Z,98.90
2018-09-13T23:02:42.717Z,99.00
2018-09-13T23:05:12.312Z,98.80
2018-09-13T23:07:41.602Z,99.10
2018-09-13T23:10:10.802Z,99.30
2018-09-13T23:12:40.069Z,99.60
2018-09-13T23:15:09.266Z,99.90
2018-09-13T23:17:38.492Z,99.90
2018-09-13T23:20:07.874Z,99.90
2018-09-13T23:22:37.033Z,99.90
2018-09-13T23:25:06.183Z,99.90
2018-09-13T23:27:35.397Z,99.60
2018-09-13T23:30:04.857Z,99.40
2018-09-13T23:32:34.015Z,99.90
2018-09-13T23:35:03.196Z,99.20
2018-09-13T23:37:32.365Z,99.70
2018-09-13T23:40:02.213Z,99.90
2018-09-13T23:42:31.329Z,99.90
2018-09-13T23:45:06.473Z,99.90
2018-09-13T23:47:35.674Z,99.90
2018-09-13T23:50:04.940Z,99.90
2018-09-13T23:52:34.096Z,99.90
2018-09-13T23:55:03.574Z,99.90
2018-09-13T23:57:32.758Z,99.90
